createdAt,value
2022-10-15T00:00:55.533Z,1
2022-10-15T00:06:07.570Z,0
2022-10-15T00:11:19.628Z,0
2022-10-15T00:16:31.539Z,1
2022-10-15T00:21:43.349Z,0
2022-10-15T00:26:55.203Z,1
2022-10-15T00:32:07.278Z,0
2022-10-15T00:37:19.158Z,1
2022-10-15T00:42:30.984Z,0
2022-10-15T00:47:45.093Z,0
2022-10-15T00:52:56.159Z,0
2022-10-15T00:58:08.386Z,0
2022-10-15T01:03:20.221Z,0
2022-10-15T01:08:32.200Z,0
2022-10-15T01:13:43.982Z,0
2022-10-15T01:18:55.701Z,1
2022-10-15T01:24:07.629Z,0
2022-10-15T01:29:19.552Z,0
2022-10-15T01:34:31.470Z,0
2022-10-15T01:39:43.660Z,0
2022-10-15T01:44:55.352Z,0
2022-10-15T01:50:07.341Z,0
2022-10-15T01:55:19.335Z,0
2022-10-15T02:00:31.303Z,0
2022-10-15T02:05:43.008Z,1
2022-10-15T02:10:54.829Z,0
2022-10-15T02:16:06.712Z,0
2022-10-15T02:21:18.311Z,0
2022-10-15T02:26:30.099Z,0
2022-10-15T02:31:41.843Z,0
2022-10-15T02:36:53.621Z,0
2022-10-15T02:42:05.318Z,0
2022-10-15T02:47:17.310Z,1
2022-10-15T02:52:28.941Z,0
2022-10-15T02:57:40.791Z,0
2022-10-15T03:02:52.907Z,0
2022-10-15T03:08:04.744Z,0
2022-10-15T03:13:16.683Z,0
2022-10-15T03:18:28.505Z,0
2022-10-15T03:23:40.543Z,0
2022-10-15T03:28:52.632Z,0
2022-10-15T03:34:04.414Z,0
2022-10-15T03:39:16.321Z,1
2022-10-15T03:44:27.953Z,0
2022-10-15T03:49:39.976Z,1
2022-10-15T03:54:51.857Z,0
2022-10-15T04:00:03.693Z,0
2022-10-15T04:05:15.545Z,0
2022-10-15T04:10:27.384Z,0
2022-10-15T04:15:39.443Z,0
2022-10-15T04:20:51.578Z,0
2022-10-15T04:26:03.640Z,0
2022-10-15T04:31:15.866Z,0
2022-10-15T04:36:28.445Z,0
2022-10-15T04:41:40.605Z,1
2022-10-15T04:46:52.890Z,0
2022-10-15T04:52:04.921Z,0
2022-10-15T04:57:16.994Z,0
2022-10-15T05:02:29.490Z,0
2022-10-15T05:07:42.469Z,0
2022-10-15T05:12:57.775Z,0
2022-10-15T05:18:11.260Z,0
2022-10-15T05:23:23.565Z,0
2022-10-15T05:28:35.805Z,0
2022-10-15T05:33:48.017Z,0
2022-10-15T05:39:00.306Z,0
2022-10-15T05:44:12.544Z,0
2022-10-15T05:49:24.859Z,0
2022-10-15T05:54:37.268Z,0
2022-10-15T05:59:49.636Z,1
2022-10-15T06:05:01.688Z,0
2022-10-15T06:10:13.926Z,0
2022-10-15T06:15:25.948Z,0
2022-10-15T06:20:38.155Z,0
2022-10-15T06:25:50.355Z,0
2022-10-15T06:31:02.933Z,0
2022-10-15T06:36:15.103Z,0
2022-10-15T06:41:27.633Z,0
2022-10-15T06:46:40.054Z,0
2022-10-15T06:51:52.303Z,0
2022-10-15T06:57:04.765Z,0
2022-10-15T07:02:17.115Z,0
2022-10-15T07:07:29.386Z,0
2022-10-15T07:12:41.956Z,0
2022-10-15T07:17:54.145Z,0
2022-10-15T07:23:06.342Z,0
2022-10-15T07:28:19.046Z,0
2022-10-15T07:33:31.343Z,0
2022-10-15T07:38:43.643Z,0
2022-10-15T07:43:57.441Z,0
2022-10-15T07:49:10.162Z,0
2022-10-15T07:54:22.329Z,0
2022-10-15T07:59:34.799Z,0
2022-10-15T08:04:47.347Z,0
2022-10-15T08:09:59.601Z,0
2022-10-15T08:15:11.916Z,0
2022-10-15T08:20:24.098Z,0
2022-10-15T08:25:36.300Z,0
2022-10-15T08:30:48.953Z,0
2022-10-15T08:36:01.541Z,1
2022-10-15T08:41:13.860Z,1
2022-10-15T08:46:26.116Z,1
2022-10-15T08:51:38.418Z,1
2022-10-15T08:56:50.787Z,2
2022-10-15T09:02:03.082Z,2
2022-10-15T09:07:15.129Z,2
2022-10-15T09:12:27.445Z,3
2022-10-15T09:17:40.072Z,3
2022-10-15T09:22:52.697Z,4
2022-10-15T09:28:05.024Z,6
2022-10-15T09:33:17.570Z,7
2022-10-15T09:38:29.946Z,8
2022-10-15T09:43:42.521Z,10
2022-10-15T09:48:55.131Z,12
2022-10-15T09:54:07.434Z,13
2022-10-15T09:59:20.143Z,14
2022-10-15T10:04:32.403Z,12
2022-10-15T10:09:44.770Z,14
2022-10-15T10:14:57.078Z,15
2022-10-15T10:20:09.570Z,15
2022-10-15T10:25:21.884Z,15
2022-10-15T10:30:34.324Z,18
2022-10-15T10:35:46.489Z,17
2022-10-15T10:40:58.703Z,17
2022-10-15T10:46:10.977Z,17
2022-10-15T10:51:23.622Z,18
2022-10-15T10:56:35.936Z,20
2022-10-15T11:01:48.206Z,19
2022-10-15T11:07:00.692Z,20
2022-10-15T11:12:13.058Z,20
2022-10-15T11:22:35.621Z,19
2022-10-15T11:27:47.774Z,19
2022-10-15T11:33:11.203Z,19
2022-10-15T11:38:21.545Z,18
2022-10-15T11:43:33.886Z,18
2022-10-15T11:48:46.178Z,17
2022-10-15T11:53:59.102Z,19
2022-10-15T11:59:11.331Z,18
2022-10-15T12:04:25.962Z,19
2022-10-15T12:09:46.054Z,18
2022-10-15T12:14:58.461Z,17
2022-10-15T12:20:11.183Z,17
2022-10-15T12:25:23.846Z,17
2022-10-15T12:30:36.641Z,18
2022-10-15T12:35:48.889Z,16
2022-10-15T12:41:01.431Z,19
2022-10-15T12:46:14.027Z,18
2022-10-15T12:51:26.491Z,20
2022-10-15T12:56:39.415Z,19
2022-10-15T13:01:51.763Z,17
2022-10-15T13:07:04.126Z,19
2022-10-15T13:12:16.733Z,20
2022-10-15T13:17:29.095Z,20
2022-10-15T13:22:41.711Z,19
2022-10-15T13:27:54.377Z,19
2022-10-15T13:33:06.638Z,18
2022-10-15T13:38:19.675Z,19
2022-10-15T13:43:32.060Z,18
2022-10-15T13:53:56.600Z,17
2022-10-15T13:59:28.845Z,17
2022-10-15T14:04:37.853Z,17
2022-10-15T14:09:50.182Z,16
2022-10-15T14:15:02.882Z,16
2022-10-15T14:20:28.786Z,16
2022-10-15T14:25:38.572Z,15
2022-10-15T14:30:51.153Z,16
2022-10-15T14:36:03.588Z,15
2022-10-15T14:41:15.907Z,14
2022-10-15T14:46:28.404Z,15
2022-10-15T14:51:40.666Z,15
2022-10-15T14:56:54.337Z,15
2022-10-15T15:02:06.587Z,14
2022-10-15T15:07:18.915Z,15
2022-10-15T15:12:33.001Z,14
2022-10-15T15:17:45.817Z,15
2022-10-15T15:22:59.221Z,14
2022-10-15T15:28:11.302Z,16
2022-10-15T15:33:24.171Z,16
2022-10-15T15:38:36.654Z,16
2022-10-15T15:43:49.295Z,16
2022-10-15T15:49:01.892Z,15
2022-10-15T15:54:14.217Z,14
2022-10-15T15:59:27.204Z,13
2022-10-15T16:04:39.610Z,13
2022-10-15T16:09:51.997Z,12
2022-10-15T16:15:04.068Z,11
2022-10-15T16:20:16.154Z,11
2022-10-15T16:25:30.897Z,9
2022-10-15T16:30:42.147Z,10
2022-10-15T16:35:54.921Z,10
2022-10-15T16:41:06.552Z,10
2022-10-15T16:46:18.831Z,10
2022-10-15T16:51:32.032Z,9
2022-10-15T16:56:43.859Z,9
2022-10-15T17:01:56.898Z,9
2022-10-15T17:07:08.945Z,9
2022-10-15T17:12:20.958Z,8
2022-10-15T17:17:33.099Z,8
2022-10-15T17:22:45.120Z,7
2022-10-15T17:27:56.785Z,6
2022-10-15T17:33:08.751Z,5
2022-10-15T17:38:23.539Z,5
2022-10-15T17:43:41.590Z,5
2022-10-15T17:48:57.803Z,5
2022-10-15T17:54:10.364Z,3
2022-10-15T17:59:23.659Z,3
2022-10-15T18:04:35.175Z,3
2022-10-15T18:09:47.430Z,3
2022-10-15T18:14:59.285Z,3
2022-10-15T18:20:11.367Z,2
2022-10-15T18:25:23.731Z,2
2022-10-15T18:30:35.717Z,2
2022-10-15T18:35:47.603Z,2
2022-10-15T18:40:59.686Z,2
2022-10-15T18:46:11.744Z,2
2022-10-15T18:51:24.008Z,1
2022-10-15T18:56:35.940Z,1
2022-10-15T19:01:48.167Z,1
2022-10-15T19:07:00.013Z,1
2022-10-15T19:12:11.995Z,0
2022-10-15T19:17:34.172Z,0
2022-10-15T19:22:46.041Z,0
2022-10-15T19:27:58.302Z,0
2022-10-15T19:33:10.833Z,0
2022-10-15T19:38:24.187Z,0
2022-10-15T19:43:36.392Z,0
2022-10-15T19:48:48.497Z,0
2022-10-15T19:54:00.651Z,0
2022-10-15T19:59:12.889Z,0
2022-10-15T20:04:25.372Z,0
2022-10-15T20:09:37.716Z,0
2022-10-15T20:14:49.737Z,0
2022-10-15T20:20:01.727Z,0
2022-10-15T20:25:13.689Z,0
2022-10-15T20:30:25.839Z,0
2022-10-15T20:35:37.562Z,0
2022-10-15T20:40:49.519Z,0
2022-10-15T20:46:01.490Z,0
2022-10-15T20:51:13.661Z,0
2022-10-15T20:56:25.810Z,0
2022-10-15T21:01:38.348Z,0
2022-10-15T21:06:50.227Z,0
2022-10-15T21:12:02.153Z,0
2022-10-15T21:17:14.429Z,0
2022-10-15T21:22:26.664Z,0
2022-10-15T21:27:38.763Z,0
2022-10-15T21:32:50.636Z,0
2022-10-15T21:38:02.481Z,0
2022-10-15T21:43:14.335Z,0
2022-10-15T21:48:26.168Z,0
2022-10-15T21:53:38.428Z,0
2022-10-15T21:58:50.252Z,0
2022-10-15T22:04:02.193Z,0
2022-10-15T22:09:14.027Z,0
2022-10-15T22:14:26.110Z,0
2022-10-15T22:19:38.060Z,0
2022-10-15T22:24:49.889Z,0
2022-10-15T22:30:01.651Z,0
2022-10-15T22:35:13.676Z,0
2022-10-15T22:40:25.439Z,0
2022-10-15T22:45:37.408Z,0
2022-10-15T22:50:49.458Z,0
2022-10-15T22:56:01.272Z,0
2022-10-15T23:01:13.544Z,0
2022-10-15T23:06:25.247Z,0
2022-10-15T23:11:37.363Z,0
2022-10-15T23:16:50.232Z,0
2022-10-15T23:22:01.644Z,0
2022-10-15T23:27:14.498Z,0
2022-10-15T23:32:26.007Z,0
2022-10-15T23:37:37.783Z,0
2022-10-15T23:42:49.683Z,0
2022-10-15T23:48:01.380Z,0
2022-10-15T23:53:13.182Z,0
2022-10-15T23:58:24.928Z,0
